createdAt,value
2019-03-26T00:02:05.867Z,96.50
2019-03-26T00:04:34.467Z,96.20
2019-03-26T00:07:02.941Z,96.10
2019-03-26T00:09:31.401Z,96.20
2019-03-26T00:12:00.129Z,96.30
2019-03-26T00:14:28.720Z,96.00
2019-03-26T00:16:57.333Z,96.20
2019-03-26T00:19:25.963Z,96.10
2019-03-26T00:21:54.503Z,95.90
2019-03-26T00:24:23.044Z,96.10
2019-03-26T00:26:51.678Z,95.90
2019-03-26T00:29:20.168Z,95.90
2019-03-26T00:31:48.659Z,95.80
2019-03-26T00:34:19.416Z,95.90
2019-03-26T00:36:48.083Z,95.80
2019-03-26T00:39:16.547Z,95.60
2019-03-26T00:41:45.145Z,95.60
2019-03-26T00:44:13.600Z,95.60
2019-03-26T00:46:42.071Z,95.80
2019-03-26T00:49:11.110Z,95.50
2019-03-26T00:51:39.519Z,95.60
2019-03-26T00:54:07.982Z,95.80
2019-03-26T00:56:36.490Z,95.80
2019-03-26T00:59:05.015Z,95.60
2019-03-26T01:01:33.527Z,95.60
2019-03-26T01:04:02.530Z,95.50
2019-03-26T01:06:31.095Z,95.70
2019-03-26T01:08:59.997Z,95.70
2019-03-26T01:11:28.596Z,95.50
2019-03-26T01:13:57.040Z,95.50
2019-03-26T01:16:25.494Z,95.40
2019-03-26T01:18:54.222Z,95.20
2019-03-26T01:21:22.718Z,94.80
2019-03-26T01:23:51.189Z,94.70
2019-03-26T01:26:19.747Z,94.40
2019-03-26T01:28:48.256Z,94.30
2019-03-26T01:31:19.278Z,94.30
2019-03-26T01:33:48.070Z,94.20
2019-03-26T01:36:16.555Z,94.30
2019-03-26T01:38:45.022Z,94.00
2019-03-26T01:41:13.714Z,93.60
2019-03-26T01:43:42.128Z,93.70
2019-03-26T01:46:10.539Z,93.50
2019-03-26T01:48:44.610Z,93.60
2019-03-26T01:51:13.137Z,93.30
2019-03-26T01:53:41.559Z,93.20
2019-03-26T01:56:10.326Z,93.20
2019-03-26T01:58:39.087Z,93.30
2019-03-26T02:01:07.563Z,92.90
2019-03-26T02:03:36.134Z,92.50
2019-03-26T02:06:04.703Z,92.40
2019-03-26T02:08:33.139Z,92.60
2019-03-26T02:11:02.064Z,92.80
2019-03-26T02:13:30.522Z,92.60
2019-03-26T02:15:58.970Z,93.10
2019-03-26T02:18:27.562Z,92.90
2019-03-26T02:20:56.070Z,93.20
2019-03-26T02:23:24.566Z,93.10
2019-03-26T02:25:53.314Z,93.20
2019-03-26T02:28:22.602Z,93.60
2019-03-26T02:30:51.105Z,93.90
2019-03-26T02:33:19.868Z,93.80
2019-03-26T02:35:48.408Z,93.80
2019-03-26T02:38:16.839Z,93.60
2019-03-26T02:40:45.679Z,93.60
2019-03-26T02:43:14.309Z,93.50
2019-03-26T02:45:42.813Z,93.50
2019-03-26T02:48:11.712Z,93.20
2019-03-26T02:50:40.159Z,93.90
2019-03-26T02:53:09.124Z,93.20
2019-03-26T02:55:38.200Z,93.10
2019-03-26T02:58:06.628Z,92.90
2019-03-26T03:00:35.062Z,93.10
2019-03-26T03:03:03.641Z,93.00
2019-03-26T03:05:35.688Z,92.90
2019-03-26T03:08:02.359Z,92.60
2019-03-26T03:10:30.987Z,92.70
2019-03-26T03:12:59.522Z,92.40
2019-03-26T03:15:28.796Z,92.50
2019-03-26T03:17:57.460Z,92.00
2019-03-26T03:20:25.962Z,92.30
2019-03-26T03:22:54.554Z,91.80
2019-03-26T03:25:23.585Z,91.70
2019-03-26T03:27:52.147Z,91.70
2019-03-26T03:30:22.755Z,91.70
2019-03-26T03:32:51.395Z,91.90
2019-03-26T03:35:20.191Z,92.50
2019-03-26T03:37:48.690Z,93.10
2019-03-26T03:40:17.740Z,93.50
2019-03-26T03:42:46.254Z,93.60
2019-03-26T03:45:18.252Z,93.90
2019-03-26T03:47:46.085Z,93.80
2019-03-26T03:50:16.138Z,94.00
2019-03-26T03:52:46.408Z,94.00
2019-03-26T03:55:15.036Z,93.90
2019-03-26T03:57:45.133Z,93.60
2019-03-26T04:00:19.653Z,93.90
2019-03-26T04:02:48.073Z,93.70
2019-03-26T04:05:16.512Z,93.60
2019-03-26T04:07:45.287Z,92.80
2019-03-26T04:10:13.765Z,93.00
2019-03-26T04:12:42.342Z,93.10
2019-03-26T04:15:11.026Z,93.00
2019-03-26T04:17:39.499Z,93.00
2019-03-26T04:20:08.255Z,92.80
2019-03-26T04:22:37.107Z,92.70
2019-03-26T04:25:05.868Z,92.90
2019-03-26T04:27:35.928Z,92.80
2019-03-26T04:30:07.075Z,92.60
2019-03-26T04:32:35.578Z,92.40
2019-03-26T04:35:06.002Z,92.40
2019-03-26T04:37:34.854Z,92.30
2019-03-26T04:40:03.424Z,92.20
2019-03-26T04:42:31.942Z,92.20
2019-03-26T04:45:00.669Z,91.90
2019-03-26T04:47:29.517Z,92.20
2019-03-26T04:49:57.976Z,91.80
2019-03-26T04:52:26.747Z,92.20
2019-03-26T04:54:55.208Z,92.20
2019-03-26T04:57:23.730Z,92.20
2019-03-26T04:59:52.482Z,92.40
2019-03-26T05:02:21.165Z,92.50
2019-03-26T05:04:49.597Z,92.50
2019-03-26T05:07:18.141Z,92.60
2019-03-26T05:09:46.571Z,92.90
2019-03-26T05:12:19.111Z,92.90
2019-03-26T05:14:47.528Z,93.10
2019-03-26T05:17:15.975Z,93.00
2019-03-26T05:19:46.285Z,92.90
2019-03-26T05:22:23.929Z,93.20
2019-03-26T05:24:44.900Z,92.90
2019-03-26T05:27:13.790Z,93.10
2019-03-26T05:29:42.271Z,92.90
2019-03-26T05:32:10.756Z,92.80
2019-03-26T05:34:40.111Z,93.20
2019-03-26T05:37:08.555Z,92.90
2019-03-26T05:39:36.987Z,92.90
2019-03-26T05:42:05.574Z,92.90
2019-03-26T05:44:34.059Z,92.80
2019-03-26T05:47:02.483Z,93.90
2019-03-26T05:49:31.231Z,93.70
2019-03-26T05:51:59.783Z,92.60
2019-03-26T05:54:28.206Z,92.50
2019-03-26T05:56:57.054Z,92.50
2019-03-26T05:59:25.461Z,92.40
2019-03-26T06:01:53.931Z,92.40
2019-03-26T06:04:22.709Z,92.60
2019-03-26T06:07:03.963Z,93.00
2019-03-26T06:09:21.497Z,93.00
2019-03-26T06:11:51.147Z,93.90
2019-03-26T06:14:19.770Z,93.40
2019-03-26T06:16:48.185Z,93.40
2019-03-26T06:19:17.735Z,93.50
2019-03-26T06:21:46.337Z,93.20
2019-03-26T06:24:15.067Z,93.10
2019-03-26T06:26:43.711Z,92.90
2019-03-26T06:29:12.453Z,92.90
2019-03-26T06:31:40.893Z,92.30
2019-03-26T06:34:10.633Z,91.90
2019-03-26T06:36:40.430Z,91.50
2019-03-26T06:39:09.100Z,91.80
2019-03-26T06:41:39.054Z,90.80
2019-03-26T06:44:07.537Z,90.60
2019-03-26T06:46:36.190Z,89.40
2019-03-26T06:49:05.385Z,88.60
2019-03-26T06:51:34.019Z,89.60
2019-03-26T06:54:02.474Z,89.40
2019-03-26T06:56:31.417Z,90.30
2019-03-26T06:58:59.989Z,88.20
2019-03-26T07:01:28.647Z,87.40
2019-03-26T07:03:57.460Z,88.20
2019-03-26T07:06:25.924Z,88.20
2019-03-26T07:08:54.446Z,88.00
2019-03-26T07:11:23.185Z,89.80
2019-03-26T07:13:51.746Z,89.10
2019-03-26T07:16:20.192Z,88.70
2019-03-26T07:18:48.800Z,89.00
2019-03-26T07:21:17.381Z,86.90
2019-03-26T07:23:45.906Z,86.80
2019-03-26T07:26:14.885Z,86.80
2019-03-26T07:28:43.294Z,86.30
2019-03-26T07:31:11.862Z,86.40
2019-03-26T07:33:40.445Z,87.40
2019-03-26T07:36:10.679Z,87.00
2019-03-26T07:38:39.369Z,87.10
2019-03-26T07:41:08.195Z,87.80
2019-03-26T07:43:36.676Z,87.30
2019-03-26T07:46:05.411Z,86.00
2019-03-26T07:48:34.246Z,86.00
2019-03-26T07:51:02.671Z,85.90
2019-03-26T07:53:31.136Z,86.00
2019-03-26T07:55:59.716Z,86.50
2019-03-26T07:58:35.190Z,87.70
2019-03-26T08:01:03.757Z,87.40
2019-03-26T08:03:32.967Z,86.50
2019-03-26T08:06:01.469Z,85.90
2019-03-26T08:08:30.501Z,85.70
2019-03-26T08:10:59.144Z,85.40
2019-03-26T08:13:27.595Z,85.70
2019-03-26T08:15:56.430Z,87.10
2019-03-26T08:18:24.958Z,86.50
2019-03-26T08:20:53.378Z,88.00
2019-03-26T08:23:22.434Z,88.00
2019-03-26T08:25:50.949Z,88.90
2019-03-26T08:28:19.423Z,89.30
2019-03-26T08:30:50.185Z,90.40
2019-03-26T08:33:18.450Z,90.30
2019-03-26T08:35:46.896Z,90.60
2019-03-26T08:38:15.989Z,90.80
2019-03-26T08:40:45.020Z,90.20
2019-03-26T08:43:13.442Z,90.70
2019-03-26T08:45:42.349Z,90.20
2019-03-26T08:48:10.950Z,90.10
2019-03-26T08:50:39.432Z,89.40
2019-03-26T08:53:08.113Z,89.40
2019-03-26T08:55:36.536Z,88.40
2019-03-26T08:58:05.190Z,87.60
2019-03-26T09:00:34.176Z,85.80
2019-03-26T09:03:02.730Z,85.50
2019-03-26T09:05:31.320Z,85.70
2019-03-26T09:07:59.869Z,85.10
2019-03-26T09:10:32.370Z,84.50
2019-03-26T09:13:01.068Z,85.10
2019-03-26T09:15:29.539Z,85.50
2019-03-26T09:17:58.148Z,86.50
2019-03-26T09:20:27.197Z,85.10
2019-03-26T09:22:55.609Z,84.50
2019-03-26T09:25:24.061Z,85.40
2019-03-26T09:27:52.807Z,85.90
2019-03-26T09:30:21.314Z,84.20
2019-03-26T09:32:49.971Z,82.10
2019-03-26T09:35:18.734Z,79.10
2019-03-26T09:37:47.147Z,79.70
2019-03-26T09:40:16.002Z,78.30
2019-03-26T09:42:44.760Z,76.70
2019-03-26T09:45:14.342Z,77.50
2019-03-26T09:47:42.811Z,78.80
2019-03-26T09:50:12.528Z,79.20
2019-03-26T09:52:40.954Z,80.50
2019-03-26T09:55:11.029Z,82.30
2019-03-26T09:57:39.633Z,83.30
2019-03-26T10:00:11.106Z,83.40
2019-03-26T10:02:42.984Z,83.50
2019-03-26T10:05:10.783Z,84.40
2019-03-26T10:07:39.395Z,85.50
2019-03-26T10:10:09.009Z,86.10
2019-03-26T10:12:37.438Z,86.20
2019-03-26T10:15:07.210Z,86.10
2019-03-26T10:17:38.162Z,86.50
2019-03-26T10:20:07.817Z,85.50
2019-03-26T10:22:41.895Z,86.00
2019-03-26T10:25:11.274Z,86.10
2019-03-26T10:27:45.378Z,85.60
2019-03-26T10:30:15.859Z,86.40
2019-03-26T10:32:44.357Z,86.40
2019-03-26T10:35:13.695Z,86.20
2019-03-26T10:37:42.099Z,86.40
2019-03-26T10:40:12.654Z,86.40
2019-03-26T10:42:42.932Z,87.00
2019-03-26T10:45:11.497Z,86.80
2019-03-26T10:47:39.958Z,85.90
2019-03-26T10:50:09.180Z,84.50
2019-03-26T10:52:37.630Z,84.40
2019-03-26T10:55:06.579Z,84.60
2019-03-26T10:57:35.740Z,84.40
2019-03-26T11:00:06.921Z,84.40
2019-03-26T11:02:35.419Z,82.20
2019-03-26T11:05:06.115Z,83.30
2019-03-26T11:07:34.777Z,83.50
2019-03-26T11:10:04.273Z,82.20
2019-03-26T11:12:32.972Z,83.10
2019-03-26T11:15:01.496Z,82.80
2019-03-26T11:17:30.616Z,81.50
2019-03-26T11:19:59.352Z,80.10
2019-03-26T11:22:27.760Z,79.50
2019-03-26T11:24:56.229Z,77.90
2019-03-26T11:27:25.323Z,76.30
2019-03-26T11:29:53.732Z,75.40
2019-03-26T11:32:22.356Z,73.30
2019-03-26T11:34:52.012Z,72.90
2019-03-26T11:37:20.659Z,74.20
2019-03-26T11:39:49.172Z,73.40
2019-03-26T11:42:17.928Z,72.10
2019-03-26T11:44:46.463Z,69.80
2019-03-26T11:47:14.934Z,69.10
2019-03-26T11:49:43.475Z,67.10
2019-03-26T11:52:12.571Z,65.10
2019-03-26T11:54:40.998Z,63.40
2019-03-26T11:57:16.698Z,63.50
2019-03-26T11:59:45.200Z,65.60
2019-03-26T12:02:14.003Z,68.40
2019-03-26T12:04:42.861Z,70.20
2019-03-26T12:07:11.384Z,71.00
2019-03-26T12:09:46.326Z,70.50
2019-03-26T12:12:10.384Z,72.90
2019-03-26T12:14:39.255Z,73.80
2019-03-26T12:17:07.730Z,76.10
2019-03-26T12:19:36.571Z,76.90
2019-03-26T12:22:05.178Z,78.00
2019-03-26T12:24:33.626Z,79.10
2019-03-26T12:27:02.298Z,80.50
2019-03-26T12:29:30.728Z,80.60
2019-03-26T12:31:59.298Z,81.30
2019-03-26T12:34:28.165Z,80.50
2019-03-26T12:36:56.576Z,80.50
2019-03-26T12:39:25.036Z,80.60
2019-03-26T12:41:53.768Z,79.50
2019-03-26T12:44:22.364Z,79.20
2019-03-26T12:46:50.837Z,79.80
2019-03-26T12:49:19.614Z,78.70
2019-03-26T12:51:48.052Z,77.30
2019-03-26T12:54:16.601Z,77.40
2019-03-26T12:56:45.262Z,77.80
2019-03-26T12:59:13.825Z,78.20
2019-03-26T13:01:42.392Z,77.70
2019-03-26T13:04:12.764Z,78.10
2019-03-26T13:06:41.323Z,77.80
2019-03-26T13:09:10.116Z,78.20
2019-03-26T13:11:38.919Z,77.80
2019-03-26T13:14:07.757Z,78.70
2019-03-26T13:16:36.376Z,78.90
2019-03-26T13:19:05.131Z,78.20
2019-03-26T13:21:33.590Z,78.90
2019-03-26T13:24:02.005Z,80.30
2019-03-26T13:26:30.749Z,83.00
2019-03-26T13:28:59.219Z,83.40
2019-03-26T13:31:27.753Z,84.40
2019-03-26T13:33:56.313Z,83.80
2019-03-26T13:36:26.288Z,84.90
2019-03-26T13:38:54.688Z,84.40
2019-03-26T13:41:23.362Z,82.90
2019-03-26T13:43:51.793Z,82.40
2019-03-26T13:46:20.284Z,80.90
2019-03-26T13:48:48.882Z,79.90
2019-03-26T13:51:17.321Z,80.20
2019-03-26T13:53:46.158Z,80.40
2019-03-26T13:56:14.979Z,81.00
2019-03-26T13:58:43.447Z,80.90
2019-03-26T14:01:11.972Z,81.80
2019-03-26T14:03:40.689Z,82.10
2019-03-26T14:06:09.250Z,83.00
2019-03-26T14:08:37.699Z,83.80
2019-03-26T14:11:06.888Z,84.50
2019-03-26T14:13:35.409Z,84.90
2019-03-26T14:16:04.048Z,85.20
2019-03-26T14:18:32.708Z,85.70
2019-03-26T14:21:01.151Z,85.50
2019-03-26T14:23:29.623Z,84.70
2019-03-26T14:25:58.648Z,85.30
2019-03-26T14:28:27.142Z,85.40
2019-03-26T14:30:55.614Z,85.70
2019-03-26T14:33:24.394Z,85.60
2019-03-26T14:35:52.858Z,86.50
2019-03-26T14:38:21.314Z,87.40
2019-03-26T14:40:55.061Z,87.10
2019-03-26T14:43:20.725Z,87.70
2019-03-26T14:45:49.204Z,87.50
2019-03-26T14:48:18.116Z,88.60
2019-03-26T14:50:46.557Z,88.70
2019-03-26T14:53:15.042Z,88.60
2019-03-26T14:55:44.834Z,89.50
2019-03-26T14:58:13.526Z,89.10
2019-03-26T15:00:41.995Z,89.10
2019-03-26T15:03:11.094Z,89.30
2019-03-26T15:05:39.602Z,88.50
2019-03-26T15:08:08.106Z,87.90
2019-03-26T15:10:36.743Z,88.20
2019-03-26T15:13:05.182Z,88.70
2019-03-26T15:15:36.567Z,88.50
2019-03-26T15:18:04.829Z,88.20
2019-03-26T15:20:33.238Z,87.70
2019-03-26T15:23:01.679Z,87.30
2019-03-26T15:25:30.275Z,87.20
2019-03-26T15:27:59.144Z,86.50
2019-03-26T15:30:27.588Z,86.30
2019-03-26T15:32:56.577Z,86.70
2019-03-26T15:35:25.035Z,86.70
2019-03-26T15:37:53.636Z,86.10
2019-03-26T15:40:22.391Z,86.20
2019-03-26T15:42:50.877Z,85.50
2019-03-26T15:45:19.958Z,84.80
2019-03-26T15:47:48.997Z,85.00
2019-03-26T15:50:23.478Z,85.00
2019-03-26T15:52:52.286Z,85.30
2019-03-26T15:55:20.781Z,85.60
2019-03-26T15:57:49.312Z,85.30
2019-03-26T16:00:20.957Z,86.00
2019-03-26T16:02:49.472Z,85.50
2019-03-26T16:05:18.061Z,85.70
2019-03-26T16:07:46.856Z,85.50
2019-03-26T16:10:16.954Z,86.10
2019-03-26T16:12:45.499Z,84.70
2019-03-26T16:15:14.239Z,84.10
2019-03-26T16:17:43.090Z,83.60
2019-03-26T16:20:11.595Z,84.10
2019-03-26T16:22:40.417Z,84.20
2019-03-26T16:25:09.036Z,84.00
2019-03-26T16:27:37.634Z,85.00
2019-03-26T16:30:08.018Z,85.10
2019-03-26T16:32:36.534Z,84.70
2019-03-26T16:35:06.001Z,85.10
2019-03-26T16:37:35.518Z,85.70
2019-03-26T16:40:06.242Z,85.90
2019-03-26T16:42:34.679Z,86.30
2019-03-26T16:45:03.498Z,86.50
2019-03-26T16:47:32.003Z,86.40
2019-03-26T16:50:00.446Z,86.50
2019-03-26T16:52:30.693Z,86.20
2019-03-26T16:54:59.199Z,86.80
2019-03-26T16:57:27.750Z,86.60
2019-03-26T16:59:57.582Z,86.60
2019-03-26T17:02:26.094Z,86.80
2019-03-26T17:04:56.264Z,86.70
2019-03-26T17:07:26.074Z,86.40
2019-03-26T17:09:54.551Z,86.40
2019-03-26T17:12:23.073Z,86.60
2019-03-26T17:14:51.646Z,86.10
2019-03-26T17:17:20.158Z,86.30
2019-03-26T17:19:48.634Z,86.80
2019-03-26T17:22:18.139Z,87.20
2019-03-26T17:24:46.724Z,87.00
2019-03-26T17:27:15.205Z,86.70
2019-03-26T17:29:43.915Z,86.90
2019-03-26T17:32:12.415Z,87.80
2019-03-26T17:34:40.940Z,88.00
2019-03-26T17:37:10.068Z,88.00
2019-03-26T17:39:38.501Z,87.60
2019-03-26T17:42:17.136Z,86.90
2019-03-26T17:44:37.258Z,87.30
2019-03-26T17:47:05.781Z,86.80
2019-03-26T17:49:34.311Z,87.30
2019-03-26T17:52:02.998Z,87.80
2019-03-26T17:54:31.431Z,88.40
2019-03-26T17:57:00.023Z,88.80
2019-03-26T17:59:28.720Z,88.30
2019-03-26T18:01:57.322Z,88.50
2019-03-26T18:04:25.802Z,88.40
2019-03-26T18:06:54.453Z,88.50
2019-03-26T18:09:22.921Z,88.20
2019-03-26T18:11:51.473Z,89.20
2019-03-26T18:14:20.198Z,88.90
2019-03-26T18:16:48.627Z,89.00
2019-03-26T18:19:17.103Z,89.40
2019-03-26T18:21:51.758Z,90.00
2019-03-26T18:24:16.482Z,89.20
2019-03-26T18:26:45.007Z,88.20
2019-03-26T18:29:13.569Z,88.70
2019-03-26T18:31:42.027Z,89.80
2019-03-26T18:34:10.521Z,88.70
2019-03-26T18:36:39.090Z,89.00
2019-03-26T18:39:08.455Z,89.50
2019-03-26T18:41:37.177Z,88.80
2019-03-26T18:44:05.698Z,88.90
2019-03-26T18:46:34.128Z,89.00
2019-03-26T18:49:02.601Z,89.80
2019-03-26T18:51:31.342Z,88.60
2019-03-26T18:53:59.750Z,88.90
2019-03-26T18:56:28.173Z,89.20
2019-03-26T18:58:56.794Z,89.80
2019-03-26T19:01:25.306Z,89.20
2019-03-26T19:03:53.721Z,89.10
2019-03-26T19:06:22.336Z,89.50
2019-03-26T19:08:50.762Z,90.00
2019-03-26T19:11:19.221Z,89.40
2019-03-26T19:13:47.824Z,89.70
2019-03-26T19:16:16.266Z,89.20
2019-03-26T19:18:44.787Z,89.10
2019-03-26T19:21:13.354Z,89.10
2019-03-26T19:23:42.265Z,89.70
2019-03-26T19:26:10.749Z,89.80
2019-03-26T19:28:39.462Z,89.70
2019-03-26T19:31:08.017Z,90.10
2019-03-26T19:33:36.445Z,90.00
2019-03-26T19:36:05.286Z,90.20
2019-03-26T19:38:34.189Z,90.00
2019-03-26T19:41:02.711Z,90.00
2019-03-26T19:43:31.387Z,90.30
2019-03-26T19:45:59.884Z,90.20
2019-03-26T19:48:28.277Z,90.20
2019-03-26T19:50:57.294Z,90.10
2019-03-26T19:53:26.025Z,90.10
2019-03-26T19:55:54.566Z,90.20
2019-03-26T19:58:23.095Z,90.60
2019-03-26T20:00:51.521Z,90.10
2019-03-26T20:03:20.023Z,90.20
2019-03-26T20:05:48.866Z,90.20
2019-03-26T20:08:17.289Z,90.10
2019-03-26T20:10:46.377Z,90.30
2019-03-26T20:13:24.218Z,90.30
2019-03-26T20:15:45.685Z,90.50
2019-03-26T20:18:14.339Z,90.30
2019-03-26T20:20:43.124Z,90.20
2019-03-26T20:23:11.568Z,90.60
2019-03-26T20:25:40.078Z,90.20
2019-03-26T20:28:08.738Z,90.20
2019-03-26T20:30:37.196Z,90.50
2019-03-26T20:33:05.654Z,90.50
2019-03-26T20:35:34.333Z,90.70
2019-03-26T20:38:02.735Z,90.40
2019-03-26T20:40:31.207Z,90.30
2019-03-26T20:42:59.881Z,90.30
2019-03-26T20:45:28.466Z,90.60
2019-03-26T20:47:56.959Z,90.30
2019-03-26T20:50:25.527Z,90.30
2019-03-26T20:52:54.111Z,90.30
2019-03-26T20:55:28.544Z,90.50
2019-03-26T20:57:57.470Z,90.60
2019-03-26T21:00:34.515Z,90.40
2019-03-26T21:03:03.059Z,90.40
2019-03-26T21:05:51.120Z,90.40
2019-03-26T21:08:19.551Z,90.80
2019-03-26T21:10:48.304Z,90.80
2019-03-26T21:13:17.102Z,90.70
2019-03-26T21:15:56.547Z,91.00
2019-03-26T21:18:15.770Z,90.70
2019-03-26T21:20:44.757Z,90.70
2019-03-26T21:23:13.213Z,90.70
2019-03-26T21:25:41.695Z,90.70
2019-03-26T21:28:10.508Z,90.70
2019-03-26T21:30:39.007Z,90.70
2019-03-26T21:33:07.576Z,90.80
2019-03-26T21:35:36.197Z,90.90
2019-03-26T21:38:04.935Z,90.90
2019-03-26T21:40:33.358Z,90.80
2019-03-26T21:43:02.046Z,90.80
2019-03-26T21:45:35.291Z,90.80
2019-03-26T21:48:06.078Z,91.00
2019-03-26T21:50:34.621Z,91.30
2019-03-26T21:53:10.717Z,91.20
2019-03-26T21:55:39.246Z,91.10
2019-03-26T21:58:08.155Z,91.40
2019-03-26T22:00:37.097Z,91.20
2019-03-26T22:03:05.683Z,91.10
2019-03-26T22:05:34.220Z,91.30
2019-03-26T22:08:03.101Z,91.20
2019-03-26T22:10:31.609Z,91.10
2019-03-26T22:13:00.127Z,91.30
2019-03-26T22:15:33.747Z,91.40
2019-03-26T22:18:02.401Z,91.60
2019-03-26T22:20:31.297Z,91.30
2019-03-26T22:23:00.475Z,91.50
2019-03-26T22:25:29.229Z,91.50
2019-03-26T22:27:58.218Z,91.50
2019-03-26T22:30:26.965Z,91.50
2019-03-26T22:32:55.383Z,91.70
2019-03-26T22:35:24.307Z,91.80
2019-03-26T22:37:52.978Z,91.50
2019-03-26T22:40:21.401Z,91.70
2019-03-26T22:42:49.946Z,91.80
2019-03-26T22:45:19.407Z,91.90
2019-03-26T22:47:47.890Z,92.10
2019-03-26T22:50:16.554Z,92.10
2019-03-26T22:52:46.293Z,92.40
2019-03-26T22:55:15.307Z,92.40
2019-03-26T22:57:43.734Z,92.50
2019-03-26T23:00:19.165Z,92.40
2019-03-26T23:02:47.848Z,92.40
2019-03-26T23:05:16.713Z,92.70
2019-03-26T23:07:45.755Z,92.20
2019-03-26T23:10:15.403Z,92.10
2019-03-26T23:12:43.951Z,92.40
2019-03-26T23:15:19.268Z,92.60
2019-03-26T23:17:47.835Z,92.90
2019-03-26T23:20:16.331Z,93.00
2019-03-26T23:22:45.587Z,93.10
2019-03-26T23:25:14.467Z,93.20
2019-03-26T23:27:43.081Z,93.40
2019-03-26T23:30:12.942Z,93.40
2019-03-26T23:32:41.560Z,93.80
2019-03-26T23:35:10.338Z,93.70
2019-03-26T23:37:39.719Z,93.80
2019-03-26T23:40:09.652Z,94.00
2019-03-26T23:42:38.069Z,94.10
2019-03-26T23:45:08.678Z,94.10
2019-03-26T23:47:37.320Z,94.10
2019-03-26T23:50:08.262Z,94.30
2019-03-26T23:52:37.483Z,94.60
2019-03-26T23:55:09.476Z,94.30
2019-03-26T23:57:37.707Z,94.40
